createdAt,value
2023-04-08T00:00:50.223Z,68.30
2023-04-08T00:03:52.601Z,68.40
2023-04-08T00:06:54.602Z,68.50
2023-04-08T00:09:57.140Z,68.60
2023-04-08T00:13:00.888Z,68.40
2023-04-08T00:16:03.534Z,68.70
2023-04-08T00:19:06.969Z,69.00
2023-04-08T00:22:08.954Z,69.20
2023-04-08T00:25:10.986Z,69.40
2023-04-08T00:28:14.212Z,69.50
2023-04-08T00:31:16.600Z,69.60
2023-04-08T00:34:18.463Z,69.80
2023-04-08T00:37:21.308Z,70.10
2023-04-08T00:40:23.181Z,70.40
2023-04-08T00:43:24.971Z,70.30
2023-04-08T00:46:27.050Z,70.50
2023-04-08T00:49:30.498Z,70.60
2023-04-08T00:52:32.366Z,70.60
2023-04-08T00:55:34.243Z,70.60
2023-04-08T00:58:36.177Z,70.70
2023-04-08T01:01:51.296Z,70.80
2023-04-08T01:05:05.474Z,71.30
2023-04-08T01:08:10.350Z,70.60
2023-04-08T01:11:14.499Z,70.90
2023-04-08T01:14:21.123Z,70.90
2023-04-08T01:17:23.593Z,70.90
2023-04-08T01:20:26.841Z,71.10
2023-04-08T01:23:51.501Z,71.20
2023-04-08T01:26:57.093Z,70.90
2023-04-08T01:30:01.276Z,71.40
2023-04-08T01:33:05.719Z,71.50
2023-04-08T01:36:09.150Z,71.70
2023-04-08T01:39:12.339Z,71.70
2023-04-08T01:42:15.321Z,72.00
2023-04-08T01:45:20.600Z,72.10
2023-04-08T01:48:23.536Z,72.20
2023-04-08T01:51:27.188Z,72.20
2023-04-08T01:54:29.124Z,72.60
2023-04-08T01:57:35.311Z,72.70
2023-04-08T02:00:38.962Z,72.60
2023-04-08T02:03:44.276Z,73.10
2023-04-08T02:06:47.160Z,73.30
2023-04-08T02:09:49.006Z,73.40
2023-04-08T02:12:51.007Z,73.50
2023-04-08T02:16:02.599Z,74.10
2023-04-08T02:19:13.129Z,74.10
2023-04-08T02:22:28.422Z,74.20
2023-04-08T02:25:31.997Z,74.20
2023-04-08T02:28:35.702Z,74.80
2023-04-08T02:31:42.008Z,74.90
2023-04-08T02:34:44.315Z,75.10
2023-04-08T02:37:49.345Z,75.30
2023-04-08T02:40:51.663Z,75.20
2023-04-08T02:43:55.614Z,75.40
2023-04-08T02:46:57.409Z,75.40
2023-04-08T02:49:59.379Z,75.60
2023-04-08T02:53:01.532Z,76.00
2023-04-08T02:56:03.295Z,76.40
2023-04-08T02:59:05.468Z,76.80
2023-04-08T03:02:07.437Z,77.20
2023-04-08T03:05:09.824Z,77.50
2023-04-08T03:08:11.751Z,77.70
2023-04-08T03:11:13.766Z,77.90
2023-04-08T03:14:15.596Z,78.40
2023-04-08T03:17:17.449Z,78.80
2023-04-08T03:20:19.249Z,79.30
2023-04-08T03:23:21.119Z,79.70
2023-04-08T03:26:22.934Z,80.30
2023-04-08T03:29:24.971Z,80.60
2023-04-08T03:32:27.278Z,80.80
2023-04-08T03:35:29.180Z,81.20
2023-04-08T03:38:31.126Z,81.40
2023-04-08T03:41:32.911Z,81.70
2023-04-08T03:44:34.880Z,82.20
2023-04-08T03:47:36.799Z,82.70
2023-04-08T03:50:38.607Z,83.10
2023-04-08T03:53:40.486Z,83.30
2023-04-08T03:56:42.277Z,83.90
2023-04-08T03:59:44.146Z,84.20
2023-04-08T04:02:46.322Z,84.80
2023-04-08T04:05:48.201Z,84.90
2023-04-08T04:08:50.622Z,85.30
2023-04-08T04:11:52.708Z,85.60
2023-04-08T04:14:54.531Z,85.80
2023-04-08T04:17:56.319Z,86.20
2023-04-08T04:20:58.112Z,86.40
2023-04-08T04:23:59.884Z,86.60
2023-04-08T04:27:01.682Z,87.00
2023-04-08T04:30:04.748Z,86.90
2023-04-08T04:33:07.266Z,87.10
2023-04-08T04:36:08.994Z,87.30
2023-04-08T04:39:10.796Z,87.30
2023-04-08T04:42:12.846Z,87.40
2023-04-08T04:45:17.865Z,87.60
2023-04-08T04:48:20.165Z,87.70
2023-04-08T04:51:22.016Z,88.00
2023-04-08T04:54:23.837Z,88.40
2023-04-08T04:57:25.660Z,88.50
2023-04-08T05:00:27.531Z,88.70
2023-04-08T05:03:29.371Z,89.00
2023-04-08T05:06:31.130Z,89.40
2023-04-08T05:09:33.636Z,89.80
2023-04-08T05:12:37.513Z,90.00
2023-04-08T05:15:39.717Z,90.00
2023-04-08T05:18:41.806Z,90.20
2023-04-08T05:21:43.615Z,90.30
2023-04-08T05:24:45.451Z,90.50
2023-04-08T05:27:47.297Z,90.60
2023-04-08T05:30:50.796Z,90.80
2023-04-08T05:33:53.028Z,90.90
2023-04-08T05:36:54.837Z,91.00
2023-04-08T05:39:56.670Z,91.30
2023-04-08T05:42:58.472Z,91.40
2023-04-08T05:46:00.245Z,91.70
2023-04-08T05:49:02.293Z,91.90
2023-04-08T05:52:04.125Z,92.10
2023-04-08T05:55:06.681Z,92.20
2023-04-08T05:58:08.541Z,92.40
2023-04-08T06:01:10.456Z,92.60
2023-04-08T06:04:12.724Z,92.70
2023-04-08T06:07:14.688Z,93.00
2023-04-08T06:10:16.725Z,93.10
2023-04-08T06:13:20.299Z,93.30
2023-04-08T06:16:22.576Z,93.40
2023-04-08T06:19:27.885Z,93.40
2023-04-08T06:22:30.018Z,93.50
2023-04-08T06:25:31.878Z,93.60
2023-04-08T06:28:33.736Z,93.70
2023-04-08T06:31:35.568Z,93.80
2023-04-08T06:34:38.343Z,94.00
2023-04-08T06:37:41.941Z,94.30
2023-04-08T06:40:43.774Z,94.50
2023-04-08T06:43:45.633Z,94.80
2023-04-08T06:46:47.414Z,95.00
2023-04-08T06:49:49.358Z,95.20
2023-04-08T06:52:51.147Z,95.30
2023-04-08T06:55:53.009Z,95.40
2023-04-08T06:58:54.946Z,95.60
2023-04-08T07:01:56.879Z,95.70
2023-04-08T07:04:58.896Z,95.90
2023-04-08T07:08:00.787Z,96.20
2023-04-08T07:11:02.875Z,96.20
2023-04-08T07:14:04.795Z,96.00
2023-04-08T07:17:06.794Z,95.90
2023-04-08T07:20:09.252Z,96.00
2023-04-08T07:23:11.343Z,96.10
2023-04-08T07:26:13.143Z,96.00
2023-04-08T07:29:15.021Z,96.00
2023-04-08T07:32:17.027Z,96.10
2023-04-08T07:35:24.297Z,96.40
2023-04-08T07:38:26.217Z,96.50
2023-04-08T07:41:28.192Z,96.70
2023-04-08T07:44:30.119Z,96.90
2023-04-08T07:47:33.338Z,96.90
2023-04-08T07:51:08.936Z,96.90
2023-04-08T07:54:00.368Z,96.80
2023-04-08T07:57:02.648Z,97.20
2023-04-08T08:00:06.546Z,97.40
2023-04-08T08:03:08.508Z,97.50
2023-04-08T08:06:12.241Z,97.60
2023-04-08T08:09:14.472Z,97.40
2023-04-08T08:12:16.615Z,97.30
2023-04-08T08:15:18.920Z,96.50
2023-04-08T08:18:21.244Z,96.60
2023-04-08T08:21:23.327Z,96.40
2023-04-08T08:24:26.217Z,96.40
2023-04-08T08:27:28.017Z,96.60
2023-04-08T08:30:29.954Z,97.00
2023-04-08T08:33:33.312Z,97.50
2023-04-08T08:36:35.891Z,97.80
2023-04-08T08:39:37.761Z,98.30
2023-04-08T08:42:40.113Z,98.60
2023-04-08T08:45:42.866Z,98.90
2023-04-08T08:48:45.468Z,98.80
2023-04-08T08:51:47.972Z,98.30
2023-04-08T08:54:58.925Z,98.10
2023-04-08T08:58:02.455Z,97.30
2023-04-08T09:01:24.665Z,97.80
2023-04-08T09:04:26.949Z,97.50
2023-04-08T09:07:30.730Z,97.00
2023-04-08T09:10:33.629Z,96.80
2023-04-08T09:13:39.260Z,96.60
2023-04-08T09:16:44.436Z,96.30
2023-04-08T09:20:09.710Z,96.20
2023-04-08T09:23:11.608Z,95.40
2023-04-08T09:26:22.055Z,96.30
2023-04-08T09:29:27.641Z,96.30
2023-04-08T09:32:54.325Z,96.50
2023-04-08T09:35:57.752Z,95.60
2023-04-08T09:38:59.791Z,96.40
2023-04-08T09:42:08.277Z,96.40
2023-04-08T09:45:11.976Z,96.20
2023-04-08T09:48:24.276Z,96.40
2023-04-08T09:51:28.303Z,96.20
2023-04-08T09:54:39.155Z,96.50
2023-04-08T09:57:46.842Z,96.60
2023-04-08T10:00:52.274Z,97.10
2023-04-08T10:03:57.434Z,97.30
2023-04-08T10:07:07.503Z,97.80
2023-04-08T10:10:11.906Z,98.00
2023-04-08T10:13:13.978Z,98.40
2023-04-08T10:16:25.371Z,98.30
2023-04-08T10:19:41.253Z,97.40
2023-04-08T10:22:48.073Z,97.20
2023-04-08T10:25:49.959Z,97.70
2023-04-08T10:28:51.892Z,98.00
2023-04-08T10:31:53.990Z,98.10
2023-04-08T10:34:56.052Z,98.40
2023-04-08T10:37:59.074Z,98.80
2023-04-08T10:41:00.951Z,98.90
2023-04-08T10:44:06.128Z,99.10
2023-04-08T10:47:08.081Z,98.30
2023-04-08T10:50:16.981Z,98.60
2023-04-08T10:53:18.946Z,97.70
2023-04-08T10:56:22.070Z,98.00
2023-04-08T10:59:33.024Z,97.60
2023-04-08T11:02:38.935Z,96.50
2023-04-08T11:05:41.311Z,96.20
2023-04-08T11:08:44.795Z,96.20
2023-04-08T11:11:46.929Z,96.20
2023-04-08T11:14:49.875Z,96.40
2023-04-08T11:17:52.199Z,96.50
2023-04-08T11:20:54.613Z,96.40
2023-04-08T11:23:56.560Z,96.30
2023-04-08T11:26:59.300Z,96.20
2023-04-08T11:30:01.742Z,96.80
2023-04-08T11:33:03.905Z,98.00
2023-04-08T11:36:05.986Z,98.70
2023-04-08T11:39:12.322Z,98.70
2023-04-08T11:42:31.486Z,98.20
2023-04-08T11:45:41.679Z,96.10
2023-04-08T11:49:00.954Z,96.40
2023-04-08T11:52:03.409Z,95.80
2023-04-08T11:55:05.668Z,96.90
2023-04-08T11:58:07.791Z,96.90
2023-04-08T12:01:09.929Z,97.20
2023-04-08T12:04:12.060Z,96.90
2023-04-08T12:07:14.450Z,97.00
2023-04-08T12:10:16.549Z,96.80
2023-04-08T12:13:18.349Z,96.50
2023-04-08T12:16:20.833Z,96.10
2023-04-08T12:19:22.624Z,96.00
2023-04-08T12:22:24.435Z,95.80
2023-04-08T12:25:27.773Z,95.70
2023-04-08T12:28:30.118Z,95.60
2023-04-08T12:31:31.993Z,95.90
2023-04-08T12:34:34.294Z,95.80
2023-04-08T12:37:36.452Z,95.60
2023-04-08T12:40:38.502Z,95.40
2023-04-08T12:43:41.660Z,95.00
2023-04-08T12:46:43.697Z,94.80
2023-04-08T12:49:49.732Z,94.70
2023-04-08T12:52:52.047Z,94.70
2023-04-08T12:55:57.271Z,94.70
2023-04-08T12:59:01.128Z,94.80
2023-04-08T13:02:03.045Z,94.50
2023-04-08T13:05:05.225Z,94.70
2023-04-08T13:08:07.200Z,94.60
2023-04-08T13:11:09.272Z,94.40
2023-04-08T13:14:14.033Z,94.20
2023-04-08T13:17:15.944Z,94.30
2023-04-08T13:20:17.828Z,94.20
2023-04-08T13:23:19.925Z,94.20
2023-04-08T13:26:22.252Z,94.20
2023-04-08T13:29:24.387Z,94.20
2023-04-08T13:32:26.201Z,94.10
2023-04-08T13:35:28.049Z,94.20
2023-04-08T13:38:30.138Z,94.20
2023-04-08T13:41:32.055Z,94.20
2023-04-08T13:44:33.983Z,94.10
2023-04-08T13:47:37.764Z,94.20
2023-04-08T13:50:41.705Z,94.10
2023-04-08T13:53:43.565Z,94.20
2023-04-08T13:56:48.416Z,94.20
2023-04-08T13:59:50.416Z,94.30
2023-04-08T14:02:55.443Z,94.30
2023-04-08T14:06:01.570Z,94.30
2023-04-08T14:09:03.830Z,94.50
2023-04-08T14:12:05.732Z,94.70
2023-04-08T14:15:08.363Z,94.80
2023-04-08T14:18:10.719Z,94.80
2023-04-08T14:21:14.922Z,94.70
2023-04-08T14:24:16.762Z,94.70
2023-04-08T14:27:18.497Z,94.60
2023-04-08T14:30:20.705Z,94.60
2023-04-08T14:33:22.492Z,94.40
2023-04-08T14:36:24.456Z,94.50
2023-04-08T14:39:27.131Z,94.60
2023-04-08T14:42:28.953Z,94.60
2023-04-08T14:45:31.733Z,94.70
2023-04-08T14:48:33.607Z,94.80
2023-04-08T14:51:37.783Z,94.90
2023-04-08T14:54:39.705Z,94.80
2023-04-08T14:57:41.488Z,94.70
2023-04-08T15:00:45.325Z,94.70
2023-04-08T15:03:48.672Z,94.50
2023-04-08T15:06:50.768Z,94.50
2023-04-08T15:09:54.219Z,94.30
2023-04-08T15:12:56.156Z,94.40
2023-04-08T15:15:59.128Z,94.10
2023-04-08T15:19:00.962Z,93.80
2023-04-08T15:22:02.813Z,93.80
2023-04-08T15:25:05.475Z,93.70
2023-04-08T15:28:08.030Z,93.40
2023-04-08T15:31:10.094Z,93.40
2023-04-08T15:34:11.828Z,93.50
2023-04-08T15:37:13.737Z,93.60
2023-04-08T15:40:15.822Z,93.50
2023-04-08T15:43:17.648Z,93.50
2023-04-08T15:46:20.892Z,93.50
2023-04-08T15:49:24.310Z,93.30
2023-04-08T15:52:27.068Z,93.20
2023-04-08T15:55:28.928Z,93.40
2023-04-08T15:58:30.802Z,93.40
2023-04-08T16:01:33.314Z,93.40
2023-04-08T16:04:35.477Z,93.50
2023-04-08T16:07:37.511Z,93.40
2023-04-08T16:10:39.481Z,93.30
2023-04-08T16:13:42.432Z,93.20
2023-04-08T16:16:44.730Z,93.20
2023-04-08T16:19:47.322Z,93.30
2023-04-08T16:22:50.197Z,93.40
2023-04-08T16:25:52.196Z,93.60
2023-04-08T16:28:55.651Z,93.60
2023-04-08T16:31:57.619Z,93.50
2023-04-08T16:34:59.392Z,93.70
2023-04-08T16:38:01.228Z,93.70
2023-04-08T16:41:06.140Z,93.80
2023-04-08T16:44:07.898Z,93.80
2023-04-08T16:47:09.686Z,93.90
2023-04-08T16:50:11.796Z,94.30
2023-04-08T16:53:13.581Z,93.90
2023-04-08T16:56:16.572Z,94.10
2023-04-08T16:59:18.462Z,94.00
2023-04-08T17:02:21.656Z,93.80
2023-04-08T17:05:24.081Z,93.70
2023-04-08T17:08:26.526Z,93.60
2023-04-08T17:11:28.433Z,93.60
2023-04-08T17:14:31.221Z,93.60
2023-04-08T17:17:33.191Z,93.60
2023-04-08T17:20:34.978Z,93.50
2023-04-08T17:23:36.842Z,93.60
2023-04-08T17:26:41.710Z,93.60
2023-04-08T17:29:43.618Z,93.50
2023-04-08T17:32:45.987Z,93.60
2023-04-08T17:35:47.976Z,93.70
2023-04-08T17:38:50.871Z,93.70
2023-04-08T17:41:53.157Z,93.60
2023-04-08T17:44:56.136Z,93.60
2023-04-08T17:47:59.330Z,93.70
2023-04-08T17:51:02.776Z,93.50
2023-04-08T17:54:05.860Z,93.60
2023-04-08T17:57:07.811Z,93.70
2023-04-08T18:00:10.071Z,93.80
2023-04-08T18:03:12.361Z,93.80
2023-04-08T18:06:14.303Z,94.00
2023-04-08T18:09:16.141Z,93.90
2023-04-08T18:12:18.311Z,94.00
2023-04-08T18:15:20.471Z,94.10
2023-04-08T18:18:23.376Z,94.10
2023-04-08T18:21:25.462Z,94.10
2023-04-08T18:24:27.279Z,94.20
2023-04-08T18:27:29.079Z,94.10
2023-04-08T18:30:31.196Z,94.10
2023-04-08T18:33:33.709Z,94.20
2023-04-08T18:36:36.205Z,94.10
2023-04-08T18:39:41.476Z,94.10
2023-04-08T18:42:43.260Z,94.00
2023-04-08T18:45:45.782Z,94.20
2023-04-08T18:48:49.312Z,94.20
2023-04-08T18:52:01.342Z,94.20
2023-04-08T18:55:05.352Z,94.30
2023-04-08T18:58:07.475Z,94.20
2023-04-08T19:01:09.979Z,94.30
2023-04-08T19:04:12.233Z,94.60
2023-04-08T19:07:14.157Z,94.20
2023-04-08T19:10:16.083Z,94.30
2023-04-08T19:13:18.057Z,94.30
2023-04-08T19:16:20.124Z,94.30
2023-04-08T19:19:22.110Z,94.30
2023-04-08T19:22:25.043Z,94.40
2023-04-08T19:25:27.069Z,94.40
2023-04-08T19:28:28.962Z,94.30
2023-04-08T19:31:30.864Z,94.30
2023-04-08T19:34:37.490Z,94.40
2023-04-08T19:37:39.420Z,94.00
2023-04-08T19:40:41.204Z,94.40
2023-04-08T19:43:42.962Z,94.40
2023-04-08T19:46:44.817Z,94.50
2023-04-08T19:49:46.716Z,94.50
2023-04-08T19:52:48.948Z,94.50
2023-04-08T19:55:58.116Z,94.60
2023-04-08T19:59:02.031Z,94.60
2023-04-08T20:02:04.179Z,94.70
2023-04-08T20:05:07.571Z,94.70
2023-04-08T20:08:09.397Z,94.60
2023-04-08T20:11:11.548Z,94.70
2023-04-08T20:14:13.346Z,94.60
2023-04-08T20:17:16.588Z,94.70
2023-04-08T20:20:18.574Z,94.70
2023-04-08T20:23:21.003Z,95.20
2023-04-08T20:26:22.761Z,95.30
2023-04-08T20:29:24.588Z,95.40
2023-04-08T20:32:27.139Z,95.50
2023-04-08T20:35:28.938Z,95.50
2023-04-08T20:38:35.216Z,95.50
2023-04-08T20:41:37.744Z,95.50
2023-04-08T20:44:39.608Z,95.60
2023-04-08T20:47:41.550Z,95.60
2023-04-08T20:50:43.258Z,95.70
2023-04-08T20:53:45.130Z,95.80
2023-04-08T20:56:46.920Z,95.90
2023-04-08T20:59:48.795Z,95.90
2023-04-08T21:02:50.969Z,96.00
2023-04-08T21:05:55.366Z,96.10
2023-04-08T21:08:57.320Z,96.20
2023-04-08T21:11:59.260Z,96.20
2023-04-08T21:15:01.128Z,96.30
2023-04-08T21:18:04.138Z,96.40
2023-04-08T21:21:06.122Z,96.40
2023-04-08T21:24:09.503Z,96.50
2023-04-08T21:27:12.180Z,96.50
2023-04-08T21:30:14.166Z,96.60
2023-04-08T21:33:15.972Z,96.50
2023-04-08T21:36:18.149Z,96.60
2023-04-08T21:39:19.978Z,96.70
2023-04-08T21:42:22.888Z,96.80
2023-04-08T21:45:25.006Z,96.80
2023-04-08T21:48:26.882Z,96.80
2023-04-08T21:51:28.717Z,96.80
2023-04-08T21:54:30.829Z,96.90
2023-04-08T21:57:32.821Z,96.90
2023-04-08T22:00:34.899Z,96.90
2023-04-08T22:03:36.751Z,97.00
2023-04-08T22:06:38.777Z,97.00
2023-04-08T22:09:40.989Z,97.00
2023-04-08T22:12:42.840Z,97.00
2023-04-08T22:15:44.644Z,97.00
2023-04-08T22:18:46.667Z,97.00
2023-04-08T22:21:50.213Z,97.00
2023-04-08T22:24:52.000Z,97.00
2023-04-08T22:27:53.820Z,96.90
2023-04-08T22:30:55.585Z,96.90
2023-04-08T22:33:57.423Z,96.80
2023-04-08T22:36:59.246Z,96.70
2023-04-08T22:40:01.336Z,96.60
2023-04-08T22:43:03.364Z,96.50
2023-04-08T22:46:05.642Z,96.40
2023-04-08T22:49:07.668Z,96.40
2023-04-08T22:52:09.543Z,96.40
2023-04-08T22:55:11.350Z,96.40
2023-04-08T22:58:13.206Z,96.60
2023-04-08T23:01:17.278Z,96.30
2023-04-08T23:04:19.296Z,96.20
2023-04-08T23:07:21.207Z,96.30
2023-04-08T23:10:22.931Z,96.20
2023-04-08T23:13:24.756Z,96.20
2023-04-08T23:16:26.661Z,96.20
2023-04-08T23:19:28.478Z,96.30
2023-04-08T23:22:30.440Z,96.30
2023-04-08T23:25:36.091Z,96.40
2023-04-08T23:28:37.913Z,96.20
2023-04-08T23:31:39.973Z,96.40
2023-04-08T23:34:41.815Z,96.40
2023-04-08T23:37:43.583Z,96.40
2023-04-08T23:40:45.422Z,96.40
2023-04-08T23:43:47.359Z,96.40
2023-04-08T23:46:49.252Z,96.40
2023-04-08T23:49:51.405Z,96.50
2023-04-08T23:52:53.137Z,96.50
2023-04-08T23:55:55.056Z,96.50
2023-04-08T23:58:57.263Z,96.50
